sensor_id;sensor_type;location;lat;lon;timestamp;pressure;altitude;pressure_sealevel;temperature;humidity
40872;BME280;26591;43.264;26.940;2024-03-02T00:00:08;98736.06;;;8.48;86.08
40872;BME280;26591;43.264;26.940;2024-03-02T00:02:43;98741.44;;;8.46;86.11
40872;BME280;26591;43.264;26.940;2024-03-02T00:05:16;98737.97;;;8.37;86.58
40872;BME280;26591;43.264;26.940;2024-03-02T00:07:43;98739.66;;;8.47;86.95
40872;BME280;26591;43.264;26.940;2024-03-02T00:10:10;98745.00;;;8.63;87.27
40872;BME280;26591;43.264;26.940;2024-03-02T00:12:37;98745.50;;;8.67;86.48
40872;BME280;26591;43.264;26.940;2024-03-02T00:15:33;98723.88;;;8.12;87.39
40872;BME280;26591;43.264;26.940;2024-03-02T00:18:18;98730.16;;;8.62;87.55
40872;BME280;26591;43.264;26.940;2024-03-02T00:20:43;98732.81;;;8.62;86.88
40872;BME280;26591;43.264;26.940;2024-03-02T00:23:10;98729.81;;;8.57;86.67
40872;BME280;26591;43.264;26.940;2024-03-02T00:25:47;98731.50;;;8.66;86.30
40872;BME280;26591;43.264;26.940;2024-03-02T00:31:06;98733.44;;;8.56;86.72
40872;BME280;26591;43.264;26.940;2024-03-02T00:33:47;98729.31;;;8.53;86.81
40872;BME280;26591;43.264;26.940;2024-03-02T00:36:29;98721.31;;;8.37;87.58
40872;BME280;26591;43.264;26.940;2024-03-02T00:39:01;98720.16;;;8.39;87.63
40872;BME280;26591;43.264;26.940;2024-03-02T00:44:04;98709.63;;;8.39;87.32
40872;BME280;26591;43.264;26.940;2024-03-02T00:49:04;98720.66;;;8.35;87.78
40872;BME280;26591;43.264;26.940;2024-03-02T00:51:32;98713.59;;;8.35;87.84
40872;BME280;26591;43.264;26.940;2024-03-02T00:54:03;98699.88;;;8.32;88.22
40872;BME280;26591;43.264;26.940;2024-03-02T00:56:30;98704.28;;;8.66;87.32
40872;BME280;26591;43.264;26.940;2024-03-02T00:58:56;98704.13;;;8.84;86.43
40872;BME280;26591;43.264;26.940;2024-03-02T01:01:22;98703.16;;;8.77;86.04
40872;BME280;26591;43.264;26.940;2024-03-02T01:03:48;98697.56;;;8.88;85.60
40872;BME280;26591;43.264;26.940;2024-03-02T01:06:15;98692.28;;;8.80;85.56
40872;BME280;26591;43.264;26.940;2024-03-02T01:08:41;98686.16;;;8.79;85.33
40872;BME280;26591;43.264;26.940;2024-03-02T01:11:06;98684.84;;;9.08;85.16
40872;BME280;26591;43.264;26.940;2024-03-02T01:13:34;98681.72;;;9.13;84.38
40872;BME280;26591;43.264;26.940;2024-03-02T01:16:00;98680.75;;;9.22;83.57
40872;BME280;26591;43.264;26.940;2024-03-02T01:18:31;98676.09;;;9.16;83.33
40872;BME280;26591;43.264;26.940;2024-03-02T01:20:56;98691.28;;;8.89;83.54
40872;BME280;26591;43.264;26.940;2024-03-02T01:23:22;98692.75;;;8.24;86.52
40872;BME280;26591;43.264;26.940;2024-03-02T01:25:48;98696.16;;;8.00;88.30
40872;BME280;26591;43.264;26.940;2024-03-02T01:28:14;98680.78;;;8.30;88.33
40872;BME280;26591;43.264;26.940;2024-03-02T01:30:40;98677.59;;;8.26;89.34
40872;BME280;26591;43.264;26.940;2024-03-02T01:33:05;98677.59;;;8.18;88.60
40872;BME280;26591;43.264;26.940;2024-03-02T01:35:32;98681.72;;;8.20;89.33
40872;BME280;26591;43.264;26.940;2024-03-02T01:38:17;98683.56;;;8.28;89.27
40872;BME280;26591;43.264;26.940;2024-03-02T01:40:43;98676.59;;;8.19;89.61
40872;BME280;26591;43.264;26.940;2024-03-02T01:43:11;98664.78;;;8.23;89.58
40872;BME280;26591;43.264;26.940;2024-03-02T01:45:37;98664.84;;;8.48;89.23
40872;BME280;26591;43.264;26.940;2024-03-02T01:48:05;98663.56;;;8.77;88.10
40872;BME280;26591;43.264;26.940;2024-03-02T01:50:34;98660.25;;;8.50;87.98
40872;BME280;26591;43.264;26.940;2024-03-02T01:53:00;98653.06;;;8.34;88.55
40872;BME280;26591;43.264;26.940;2024-03-02T01:55:27;98651.53;;;8.58;88.46
40872;BME280;26591;43.264;26.940;2024-03-02T01:57:55;98655.81;;;8.59;87.68
40872;BME280;26591;43.264;26.940;2024-03-02T02:00:21;98648.38;;;8.54;88.03
40872;BME280;26591;43.264;26.940;2024-03-02T02:02:50;98649.19;;;8.54;87.67
40872;BME280;26591;43.264;26.940;2024-03-02T02:05:16;98657.00;;;8.13;89.34
40872;BME280;26591;43.264;26.940;2024-03-02T02:07:42;98660.91;;;8.09;90.02
40872;BME280;26591;43.264;26.940;2024-03-02T02:10:09;98664.25;;;8.19;89.87
40872;BME280;26591;43.264;26.940;2024-03-02T02:12:36;98663.25;;;8.12;90.24
40872;BME280;26591;43.264;26.940;2024-03-02T02:15:02;98660.00;;;8.27;89.32
40872;BME280;26591;43.264;26.940;2024-03-02T02:17:28;98662.75;;;8.17;89.64
40872;BME280;26591;43.264;26.940;2024-03-02T02:19:53;98677.22;;;8.13;90.12
40872;BME280;26591;43.264;26.940;2024-03-02T02:22:19;98677.91;;;8.15;90.04
40872;BME280;26591;43.264;26.940;2024-03-02T02:24:44;98667.97;;;8.00;89.97
40872;BME280;26591;43.264;26.940;2024-03-02T02:27:10;98670.66;;;8.08;90.03
40872;BME280;26591;43.264;26.940;2024-03-02T02:29:36;98668.28;;;7.97;90.47
40872;BME280;26591;43.264;26.940;2024-03-02T02:32:02;98662.69;;;7.92;90.61
40872;BME280;26591;43.264;26.940;2024-03-02T02:34:27;98662.75;;;8.08;90.60
40872;BME280;26591;43.264;26.940;2024-03-02T02:36:53;98660.31;;;8.23;90.42
40872;BME280;26591;43.264;26.940;2024-03-02T02:39:21;98661.78;;;8.18;89.72
40872;BME280;26591;43.264;26.940;2024-03-02T02:41:48;98666.25;;;8.34;89.53
40872;BME280;26591;43.264;26.940;2024-03-02T02:44:13;98654.31;;;8.56;88.92
40872;BME280;26591;43.264;26.940;2024-03-02T02:46:40;98647.31;;;8.38;88.67
40872;BME280;26591;43.264;26.940;2024-03-02T02:49:06;98641.41;;;8.45;88.31
40872;BME280;26591;43.264;26.940;2024-03-02T02:51:31;98648.06;;;8.65;88.00
40872;BME280;26591;43.264;26.940;2024-03-02T02:53:57;98639.81;;;8.68;88.19
40872;BME280;26591;43.264;26.940;2024-03-02T02:56:22;98628.75;;;9.06;86.91
40872;BME280;26591;43.264;26.940;2024-03-02T02:58:48;98630.56;;;9.14;86.03
40872;BME280;26591;43.264;26.940;2024-03-02T03:01:15;98628.41;;;9.26;84.93
40872;BME280;26591;43.264;26.940;2024-03-02T03:03:43;98632.22;;;8.98;85.11
40872;BME280;26591;43.264;26.940;2024-03-02T03:06:08;98638.84;;;9.03;84.76
40872;BME280;26591;43.264;26.940;2024-03-02T03:08:34;98632.22;;;9.15;84.26
40872;BME280;26591;43.264;26.940;2024-03-02T03:10:59;98627.13;;;9.13;83.95
40872;BME280;26591;43.264;26.940;2024-03-02T03:13:25;98629.06;;;9.20;83.19
40872;BME280;26591;43.264;26.940;2024-03-02T03:15:50;98621.34;;;8.85;84.01
40872;BME280;26591;43.264;26.940;2024-03-02T03:18:16;98629.25;;;8.68;84.70
40872;BME280;26591;43.264;26.940;2024-03-02T03:20:42;98627.94;;;9.06;83.95
40872;BME280;26591;43.264;26.940;2024-03-02T03:23:07;98632.91;;;8.67;84.95
40872;BME280;26591;43.264;26.940;2024-03-02T03:25:33;98627.50;;;8.26;86.38
40872;BME280;26591;43.264;26.940;2024-03-02T03:27:59;98632.22;;;8.57;86.54
40872;BME280;26591;43.264;26.940;2024-03-02T03:33:37;98630.94;;;8.94;85.05
40872;BME280;26591;43.264;26.940;2024-03-02T03:36:03;98627.44;;;9.10;84.09
40872;BME280;26591;43.264;26.940;2024-03-02T03:38:29;98635.84;;;8.56;84.81
40872;BME280;26591;43.264;26.940;2024-03-02T03:40:56;98637.03;;;8.70;84.38
40872;BME280;26591;43.264;26.940;2024-03-02T03:43:22;98643.69;;;8.31;85.93
40872;BME280;26591;43.264;26.940;2024-03-02T03:45:47;98644.72;;;7.96;87.55
40872;BME280;26591;43.264;26.940;2024-03-02T03:48:13;98650.31;;;7.92;88.96
40872;BME280;26591;43.264;26.940;2024-03-02T03:50:38;98651.72;;;8.21;88.36
40872;BME280;26591;43.264;26.940;2024-03-02T03:53:04;98653.56;;;8.21;88.42
40872;BME280;26591;43.264;26.940;2024-03-02T03:55:29;98651.22;;;8.18;88.09
40872;BME280;26591;43.264;26.940;2024-03-02T03:57:55;98656.44;;;7.93;88.43
40872;BME280;26591;43.264;26.940;2024-03-02T04:00:20;98651.16;;;8.01;88.69
40872;BME280;26591;43.264;26.940;2024-03-02T04:02:46;98651.16;;;8.01;88.04
40872;BME280;26591;43.264;26.940;2024-03-02T04:05:11;98652.50;;;8.05;88.30
40872;BME280;26591;43.264;26.940;2024-03-02T04:07:37;98655.16;;;8.05;88.65
40872;BME280;26591;43.264;26.940;2024-03-02T04:10:07;98652.09;;;8.27;87.66
40872;BME280;26591;43.264;26.940;2024-03-02T04:12:34;98654.53;;;8.28;87.91
40872;BME280;26591;43.264;26.940;2024-03-02T04:15:00;98649.22;;;8.03;88.01
40872;BME280;26591;43.264;26.940;2024-03-02T04:17:27;98653.88;;;8.26;87.64
40872;BME280;26591;43.264;26.940;2024-03-02T04:19:52;98645.88;;;7.93;87.70
40872;BME280;26591;43.264;26.940;2024-03-02T04:22:18;98658.16;;;8.19;87.98
40872;BME280;26591;43.264;26.940;2024-03-02T04:24:43;98658.81;;;8.21;87.21
40872;BME280;26591;43.264;26.940;2024-03-02T04:27:09;98660.00;;;8.27;86.99
40872;BME280;26591;43.264;26.940;2024-03-02T04:29:34;98662.13;;;8.23;87.71
40872;BME280;26591;43.264;26.940;2024-03-02T04:31:59;98655.69;;;8.25;86.99
40872;BME280;26591;43.264;26.940;2024-03-02T04:34:25;98659.50;;;8.31;87.11
40872;BME280;26591;43.264;26.940;2024-03-02T04:36:50;98655.81;;;8.59;86.70
40872;BME280;26591;43.264;26.940;2024-03-02T04:39:28;98649.94;;;8.30;86.57
40872;BME280;26591;43.264;26.940;2024-03-02T04:41:53;98651.16;;;8.01;87.10
40872;BME280;26591;43.264;26.940;2024-03-02T04:44:19;98656.84;;;8.23;87.38
40872;BME280;26591;43.264;26.940;2024-03-02T04:46:44;98650.94;;;8.29;87.59
40872;BME280;26591;43.264;26.940;2024-03-02T04:49:22;98653.25;;;8.40;86.43
40872;BME280;26591;43.264;26.940;2024-03-02T04:51:47;98651.38;;;8.16;87.08
40872;BME280;26591;43.264;26.940;2024-03-02T04:54:18;98654.22;;;8.23;87.52
40872;BME280;26591;43.264;26.940;2024-03-02T04:56:43;98646.50;;;8.38;87.01
40872;BME280;26591;43.264;26.940;2024-03-02T04:59:10;98653.31;;;8.49;86.75
40872;BME280;26591;43.264;26.940;2024-03-02T05:01:36;98653.91;;;7.83;88.18
40872;BME280;26591;43.264;26.940;2024-03-02T05:04:02;98656.31;;;8.11;88.23
40872;BME280;26591;43.264;26.940;2024-03-02T05:06:27;98660.44;;;8.14;87.71
40872;BME280;26591;43.264;26.940;2024-03-02T05:08:53;98661.47;;;8.29;87.95
40872;BME280;26591;43.264;26.940;2024-03-02T05:11:18;98649.44;;;7.84;87.95
40872;BME280;26591;43.264;26.940;2024-03-02T05:14:03;98649.94;;;7.79;88.63
40872;BME280;26591;43.264;26.940;2024-03-02T05:16:28;98662.53;;;7.67;89.26
40872;BME280;26591;43.264;26.940;2024-03-02T05:18:54;98649.06;;;7.44;90.50
40872;BME280;26591;43.264;26.940;2024-03-02T05:21:19;98643.88;;;7.87;91.18
40872;BME280;26591;43.264;26.940;2024-03-02T05:23:45;98649.84;;;7.97;90.44
40872;BME280;26591;43.264;26.940;2024-03-02T05:26:10;98650.84;;;8.04;88.75
40872;BME280;26591;43.264;26.940;2024-03-02T05:28:38;98647.72;;;8.01;88.76
40872;BME280;26591;43.264;26.940;2024-03-02T05:31:04;98643.81;;;8.13;87.69
40872;BME280;26591;43.264;26.940;2024-03-02T05:33:30;98647.97;;;8.32;86.58
40872;BME280;26591;43.264;26.940;2024-03-02T05:35:57;98659.81;;;8.28;86.74
40872;BME280;26591;43.264;26.940;2024-03-02T05:38:22;98656.47;;;8.09;86.99
40872;BME280;26591;43.264;26.940;2024-03-02T05:40:48;98655.91;;;8.40;86.78
40872;BME280;26591;43.264;26.940;2024-03-02T05:43:13;98648.97;;;8.39;86.87
40872;BME280;26591;43.264;26.940;2024-03-02T05:45:39;98657.19;;;8.28;86.50
40872;BME280;26591;43.264;26.940;2024-03-02T05:48:08;98654.00;;;8.51;85.82
40872;BME280;26591;43.264;26.940;2024-03-02T05:50:34;98647.00;;;8.33;86.02
40872;BME280;26591;43.264;26.940;2024-03-02T05:53:00;98665.91;;;8.20;86.01
40872;BME280;26591;43.264;26.940;2024-03-02T05:55:25;98659.16;;;8.26;85.31
40872;BME280;26591;43.264;26.940;2024-03-02T05:57:51;98668.16;;;8.58;85.02
40872;BME280;26591;43.264;26.940;2024-03-02T06:00:31;98660.34;;;8.40;84.42
40872;BME280;26591;43.264;26.940;2024-03-02T06:02:57;98664.84;;;8.48;84.55
40872;BME280;26591;43.264;26.940;2024-03-02T06:05:23;98668.81;;;8.68;83.59
40872;BME280;26591;43.264;26.940;2024-03-02T06:11:01;98669.81;;;8.51;83.96
40872;BME280;26591;43.264;26.940;2024-03-02T06:13:26;98671.66;;;8.24;84.80
40872;BME280;26591;43.264;26.940;2024-03-02T06:15:52;98669.31;;;8.13;85.27
40872;BME280;26591;43.264;26.940;2024-03-02T06:18:18;98667.59;;;8.30;85.14
40872;BME280;26591;43.264;26.940;2024-03-02T06:20:43;98672.06;;;8.37;84.57
40872;BME280;26591;43.264;26.940;2024-03-02T06:23:09;98664.78;;;8.39;84.61
40872;BME280;26591;43.264;26.940;2024-03-02T06:25:34;98665.41;;;8.17;84.88
40872;BME280;26591;43.264;26.940;2024-03-02T06:28:01;98657.47;;;8.08;85.39
40872;BME280;26591;43.264;26.940;2024-03-02T06:30:26;98666.25;;;8.34;84.63
40872;BME280;26591;43.264;26.940;2024-03-02T06:32:52;98665.75;;;8.30;84.44
40872;BME280;26591;43.264;26.940;2024-03-02T06:35:17;98666.13;;;8.35;83.86
40872;BME280;26591;43.264;26.940;2024-03-02T06:37:43;98662.13;;;8.23;84.79
40872;BME280;26591;43.264;26.940;2024-03-02T06:40:09;98664.59;;;8.24;84.53
40872;BME280;26591;43.264;26.940;2024-03-02T06:42:35;98665.44;;;8.33;85.09
40872;BME280;26591;43.264;26.940;2024-03-02T06:45:01;98667.78;;;8.45;84.88
40872;BME280;26591;43.264;26.940;2024-03-02T06:47:27;98664.47;;;8.34;84.35
40872;BME280;26591;43.264;26.940;2024-03-02T06:49:52;98662.69;;;8.43;85.07
40872;BME280;26591;43.264;26.940;2024-03-02T06:52:18;98665.16;;;8.53;84.43
40872;BME280;26591;43.264;26.940;2024-03-02T06:54:45;98655.91;;;8.40;83.80
40872;BME280;26591;43.264;26.940;2024-03-02T06:57:11;98652.09;;;8.35;84.86
40872;BME280;26591;43.264;26.940;2024-03-02T06:59:37;98654.97;;;8.58;83.95
40872;BME280;26591;43.264;26.940;2024-03-02T07:02:03;98653.66;;;8.70;83.81
40872;BME280;26591;43.264;26.940;2024-03-02T07:04:28;98653.34;;;8.65;85.65
40872;BME280;26591;43.264;26.940;2024-03-02T07:06:54;98644.44;;;8.66;83.91
40872;BME280;26591;43.264;26.940;2024-03-02T07:09:20;98644.13;;;8.94;82.79
40872;BME280;26591;43.264;26.940;2024-03-02T07:11:48;98644.25;;;8.76;82.51
40872;BME280;26591;43.264;26.940;2024-03-02T07:14:13;98630.41;;;8.58;82.78
40872;BME280;26591;43.264;26.940;2024-03-02T07:16:39;98634.84;;;8.57;82.25
40872;BME280;26591;43.264;26.940;2024-03-02T07:19:06;98634.91;;;8.82;81.92
40872;BME280;26591;43.264;26.940;2024-03-02T07:21:32;98638.47;;;8.48;82.41
40872;BME280;26591;43.264;26.940;2024-03-02T07:23:58;98640.81;;;8.76;81.62
40872;BME280;26591;43.264;26.940;2024-03-02T07:26:24;98640.47;;;8.87;80.95
40872;BME280;26591;43.264;26.940;2024-03-02T07:28:50;98644.59;;;8.65;81.92
40872;BME280;26591;43.264;26.940;2024-03-02T07:31:16;98639.00;;;9.09;80.83
40872;BME280;26591;43.264;26.940;2024-03-02T07:33:44;98639.66;;;8.95;80.20
40872;BME280;26591;43.264;26.940;2024-03-02T07:36:10;98645.09;;;8.68;80.25
40872;BME280;26591;43.264;26.940;2024-03-02T07:38:35;98655.34;;;8.80;80.91
40872;BME280;26591;43.264;26.940;2024-03-02T07:41:08;98653.34;;;9.07;79.95
40872;BME280;26591;43.264;26.940;2024-03-02T07:43:34;98655.66;;;9.01;79.50
40872;BME280;26591;43.264;26.940;2024-03-02T07:45:59;98657.63;;;8.99;79.64
40872;BME280;26591;43.264;26.940;2024-03-02T07:48:26;98646.09;;;9.09;79.94
40872;BME280;26591;43.264;26.940;2024-03-02T07:50:52;98654.16;;;9.32;79.01
40872;BME280;26591;43.264;26.940;2024-03-02T07:53:17;98648.41;;;9.20;78.58
40872;BME280;26591;43.264;26.940;2024-03-02T07:55:43;98645.28;;;9.16;79.12
40872;BME280;26591;43.264;26.940;2024-03-02T07:58:09;98640.13;;;9.31;78.66
40872;BME280;26591;43.264;26.940;2024-03-02T08:00:39;98639.06;;;9.66;77.64
40872;BME280;26591;43.264;26.940;2024-03-02T08:03:05;98642.22;;;9.61;76.56
40872;BME280;26591;43.264;26.940;2024-03-02T08:05:30;98634.06;;;9.79;75.91
40872;BME280;26591;43.264;26.940;2024-03-02T08:07:56;98636.28;;;9.59;75.79
40872;BME280;26591;43.264;26.940;2024-03-02T08:13:38;98635.50;;;9.34;76.74
40872;BME280;26591;43.264;26.940;2024-03-02T08:16:05;98631.22;;;9.32;76.99
40872;BME280;26591;43.264;26.940;2024-03-02T08:18:33;98636.75;;;9.62;75.76
40872;BME280;26591;43.264;26.940;2024-03-02T08:20:59;98634.38;;;9.76;75.45
40872;BME280;26591;43.264;26.940;2024-03-02T08:23:25;98641.41;;;10.00;75.07
40872;BME280;26591;43.264;26.940;2024-03-02T08:25:50;98644.16;;;9.75;75.02
40872;BME280;26591;43.264;26.940;2024-03-02T08:28:16;98644.84;;;10.01;74.88
40872;BME280;26591;43.264;26.940;2024-03-02T08:30:41;98642.97;;;10.18;74.08
40872;BME280;26591;43.264;26.940;2024-03-02T08:33:07;98644.63;;;10.19;73.40
40872;BME280;26591;43.264;26.940;2024-03-02T08:35:32;98644.44;;;10.20;73.30
40872;BME280;26591;43.264;26.940;2024-03-02T08:38:02;98640.03;;;10.44;72.74
40872;BME280;26591;43.264;26.940;2024-03-02T08:40:28;98645.19;;;10.06;73.20
40872;BME280;26591;43.264;26.940;2024-03-02T08:42:54;98652.66;;;9.94;73.13
40872;BME280;26591;43.264;26.940;2024-03-02T08:45:19;98643.84;;;10.10;72.96
40872;BME280;26591;43.264;26.940;2024-03-02T08:47:46;98646.81;;;10.07;73.11
40872;BME280;26591;43.264;26.940;2024-03-02T08:50:11;98645.66;;;10.10;72.83
40872;BME280;26591;43.264;26.940;2024-03-02T08:52:37;98647.38;;;9.94;73.31
40872;BME280;26591;43.264;26.940;2024-03-02T08:55:03;98654.47;;;9.93;73.00
40872;BME280;26591;43.264;26.940;2024-03-02T08:57:28;98652.03;;;9.92;73.19
40872;BME280;26591;43.264;26.940;2024-03-02T08:59:54;98647.44;;;10.17;73.49
40872;BME280;26591;43.264;26.940;2024-03-02T09:02:19;98653.84;;;10.23;72.90
40872;BME280;26591;43.264;26.940;2024-03-02T09:04:45;98653.81;;;10.00;73.29
40872;BME280;26591;43.264;26.940;2024-03-02T09:07:10;98653.88;;;9.75;74.32
40872;BME280;26591;43.264;26.940;2024-03-02T09:09:36;98648.06;;;9.88;73.76
40872;BME280;26591;43.264;26.940;2024-03-02T09:12:01;98648.06;;;9.88;73.97
40872;BME280;26591;43.264;26.940;2024-03-02T09:14:27;98654.38;;;10.18;73.37
40872;BME280;26591;43.264;26.940;2024-03-02T09:16:52;98650.69;;;10.28;72.46
40872;BME280;26591;43.264;26.940;2024-03-02T09:19:18;98646.91;;;10.22;72.19
40872;BME280;26591;43.264;26.940;2024-03-02T09:21:44;98649.50;;;10.38;72.48
40872;BME280;26591;43.264;26.940;2024-03-02T09:24:09;98647.81;;;10.69;71.32
40872;BME280;26591;43.264;26.940;2024-03-02T09:26:35;98649.47;;;10.70;70.83
40872;BME280;26591;43.264;26.940;2024-03-02T09:29:01;98644.75;;;10.57;70.49
40872;BME280;26591;43.264;26.940;2024-03-02T09:31:26;98643.41;;;10.61;70.01
40872;BME280;26591;43.264;26.940;2024-03-02T09:33:52;98649.28;;;10.72;70.81
40872;BME280;26591;43.264;26.940;2024-03-02T09:36:21;98637.50;;;10.97;69.73
40872;BME280;26591;43.264;26.940;2024-03-02T09:38:47;98632.38;;;11.34;69.27
40872;BME280;26591;43.264;26.940;2024-03-02T09:41:14;98642.75;;;11.21;67.87
40872;BME280;26591;43.264;26.940;2024-03-02T09:43:41;98642.03;;;10.89;69.24
40872;BME280;26591;43.264;26.940;2024-03-02T09:46:09;98635.03;;;10.96;69.05
40872;BME280;26591;43.264;26.940;2024-03-02T09:48:35;98645.25;;;11.22;68.39
40872;BME280;26591;43.264;26.940;2024-03-02T09:51:00;98637.59;;;11.57;67.42
40872;BME280;26591;43.264;26.940;2024-03-02T09:53:31;98636.31;;;11.68;67.67
40872;BME280;26591;43.264;26.940;2024-03-02T09:55:57;98627.53;;;11.53;66.92
40872;BME280;26591;43.264;26.940;2024-03-02T09:58:22;98625.97;;;11.13;66.92
40872;BME280;26591;43.264;26.940;2024-03-02T10:00:48;98631.56;;;11.49;66.69
40872;BME280;26591;43.264;26.940;2024-03-02T10:03:14;98613.97;;;11.18;66.59
40872;BME280;26591;43.264;26.940;2024-03-02T10:05:40;98610.09;;;11.73;65.84
40872;BME280;26591;43.264;26.940;2024-03-02T10:08:08;98608.31;;;12.11;65.27
40872;BME280;26591;43.264;26.940;2024-03-02T10:10:38;98597.19;;;12.37;63.66
40872;BME280;26591;43.264;26.940;2024-03-02T10:13:12;98599.97;;;12.50;62.45
40872;BME280;26591;43.264;26.940;2024-03-02T10:15:39;98600.41;;;12.76;62.19
40872;BME280;26591;43.264;26.940;2024-03-02T10:18:11;98591.38;;;12.70;61.48
40872;BME280;26591;43.264;26.940;2024-03-02T10:20:38;98591.25;;;12.35;62.03
40872;BME280;26591;43.264;26.940;2024-03-02T10:23:11;98585.41;;;12.46;62.42
40872;BME280;26591;43.264;26.940;2024-03-02T10:25:37;98583.63;;;12.75;61.85
40872;BME280;26591;43.264;26.940;2024-03-02T10:28:03;98572.09;;;12.90;61.13
40872;BME280;26591;43.264;26.940;2024-03-02T10:30:31;98580.22;;;12.81;60.84
40872;BME280;26591;43.264;26.940;2024-03-02T10:32:57;98578.16;;;12.77;61.26
40872;BME280;26591;43.264;26.940;2024-03-02T10:35:23;98569.53;;;13.03;60.48
40872;BME280;26591;43.264;26.940;2024-03-02T10:37:49;98573.25;;;13.37;59.83
40872;BME280;26591;43.264;26.940;2024-03-02T10:40:15;98575.91;;;13.37;59.08
40872;BME280;26591;43.264;26.940;2024-03-02T10:42:42;98574.44;;;13.28;58.98
40872;BME280;26591;43.264;26.940;2024-03-02T10:45:12;98564.66;;;13.00;58.69
40872;BME280;26591;43.264;26.940;2024-03-02T10:47:40;98572.81;;;13.34;59.08
40872;BME280;26591;43.264;26.940;2024-03-02T10:50:07;98566.16;;;13.16;59.35
40872;BME280;26591;43.264;26.940;2024-03-02T10:52:42;98568.03;;;13.51;59.16
40872;BME280;26591;43.264;26.940;2024-03-02T10:55:08;98554.00;;;13.64;58.57
40872;BME280;26591;43.264;26.940;2024-03-02T10:57:53;98550.25;;;13.51;58.98
40872;BME280;26591;43.264;26.940;2024-03-02T11:00:20;98555.41;;;13.60;58.46
40872;BME280;26591;43.264;26.940;2024-03-02T11:02:56;98545.47;;;13.82;58.25
40872;BME280;26591;43.264;26.940;2024-03-02T11:05:31;98546.94;;;13.14;59.93
40872;BME280;26591;43.264;26.940;2024-03-02T11:08:00;98535.19;;;12.95;59.85
40872;BME280;26591;43.264;26.940;2024-03-02T11:13:17;98538.22;;;13.20;59.45
40872;BME280;26591;43.264;26.940;2024-03-02T11:18:52;98531.97;;;13.90;57.50
40872;BME280;26591;43.264;26.940;2024-03-02T11:21:18;98531.00;;;14.04;56.22
40872;BME280;26591;43.264;26.940;2024-03-02T11:23:44;98538.81;;;13.57;57.49
40872;BME280;26591;43.264;26.940;2024-03-02T11:26:20;98535.16;;;13.58;58.32
40872;BME280;26591;43.264;26.940;2024-03-02T11:28:46;98530.56;;;13.87;57.70
40872;BME280;26591;43.264;26.940;2024-03-02T11:31:12;98530.13;;;13.77;56.77
40872;BME280;26591;43.264;26.940;2024-03-02T11:33:37;98525.44;;;13.86;56.15
40872;BME280;26591;43.264;26.940;2024-03-02T11:36:03;98526.28;;;14.00;56.91
40872;BME280;26591;43.264;26.940;2024-03-02T11:38:32;98519.81;;;14.36;55.97
40872;BME280;26591;43.264;26.940;2024-03-02T11:41:03;98520.84;;;14.75;55.29
40872;BME280;26591;43.264;26.940;2024-03-02T11:43:32;98525.13;;;14.43;55.10
40872;BME280;26591;43.264;26.940;2024-03-02T11:46:23;98516.13;;;14.44;55.75
40872;BME280;26591;43.264;26.940;2024-03-02T11:48:51;98519.81;;;14.90;54.57
40872;BME280;26591;43.264;26.940;2024-03-02T11:51:16;98517.16;;;14.83;54.37
40872;BME280;26591;43.264;26.940;2024-03-02T11:53:42;98515.34;;;14.77;53.97
40872;BME280;26591;43.264;26.940;2024-03-02T11:56:09;98506.97;;;15.98;53.98
40872;BME280;26591;43.264;26.940;2024-03-02T11:58:37;98503.22;;;16.63;50.72
40872;BME280;26591;43.264;26.940;2024-03-02T12:01:03;98503.59;;;15.12;52.19
40872;BME280;26591;43.264;26.940;2024-03-02T12:03:28;98497.41;;;15.18;53.11
40872;BME280;26591;43.264;26.940;2024-03-02T12:05:55;98504.69;;;15.56;53.38
40872;BME280;26591;43.264;26.940;2024-03-02T12:08:21;98500.81;;;15.97;53.41
40872;BME280;26591;43.264;26.940;2024-03-02T12:11:00;98504.00;;;16.13;51.06
40872;BME280;26591;43.264;26.940;2024-03-02T12:13:26;98504.13;;;15.40;52.77
40872;BME280;26591;43.264;26.940;2024-03-02T12:15:55;98497.69;;;14.62;53.87
40872;BME280;26591;43.264;26.940;2024-03-02T12:18:24;98496.75;;;15.43;54.78
40872;BME280;26591;43.264;26.940;2024-03-02T12:20:50;98497.97;;;16.24;51.32
40872;BME280;26591;43.264;26.940;2024-03-02T12:23:18;98491.59;;;15.93;50.97
40872;BME280;26591;43.264;26.940;2024-03-02T12:25:45;98489.47;;;15.63;51.22
40872;BME280;26591;43.264;26.940;2024-03-02T12:28:11;98497.28;;;15.65;52.42
40872;BME280;26591;43.264;26.940;2024-03-02T12:30:36;98483.13;;;16.03;50.76
40872;BME280;26591;43.264;26.940;2024-03-02T12:33:02;98487.13;;;16.44;49.83
40872;BME280;26591;43.264;26.940;2024-03-02T12:35:27;98496.13;;;16.50;49.28
40872;BME280;26591;43.264;26.940;2024-03-02T12:37:54;98491.31;;;16.33;50.03
40872;BME280;26591;43.264;26.940;2024-03-02T12:40:20;98493.28;;;15.88;50.62
40872;BME280;26591;43.264;26.940;2024-03-02T12:42:48;98489.44;;;15.70;51.16
40872;BME280;26591;43.264;26.940;2024-03-02T12:45:15;98494.97;;;16.14;50.43
40872;BME280;26591;43.264;26.940;2024-03-02T12:47:42;98489.97;;;16.24;50.15
40872;BME280;26591;43.264;26.940;2024-03-02T12:50:09;98492.47;;;15.80;51.57
40872;BME280;26591;43.264;26.940;2024-03-02T12:52:34;98490.25;;;16.16;50.56
40872;BME280;26591;43.264;26.940;2024-03-02T12:55:02;98492.50;;;16.12;51.20
40872;BME280;26591;43.264;26.940;2024-03-02T12:57:30;98484.84;;;15.91;50.64
40872;BME280;26591;43.264;26.940;2024-03-02T12:59:59;98487.22;;;16.06;50.55
40872;BME280;26591;43.264;26.940;2024-03-02T13:02:30;98483.59;;;15.41;51.69
40872;BME280;26591;43.264;26.940;2024-03-02T13:04:58;98496.63;;;15.17;52.61
40872;BME280;26591;43.264;26.940;2024-03-02T13:07:24;98499.69;;;15.21;52.74
40872;BME280;26591;43.264;26.940;2024-03-02T13:09:51;98492.00;;;15.45;52.15
40872;BME280;26591;43.264;26.940;2024-03-02T13:12:17;98490.94;;;14.80;53.59
40872;BME280;26591;43.264;26.940;2024-03-02T13:14:43;98498.53;;;14.83;53.57
40872;BME280;26591;43.264;26.940;2024-03-02T13:17:11;98501.81;;;14.78;53.24
40872;BME280;26591;43.264;26.940;2024-03-02T13:20:04;98497.91;;;14.54;53.87